sensor_id;sensor_type;location;lat;lon;timestamp;P1;durP1;ratioP1;P2;durP2;ratioP2
77078;SDS011;66004;55.096;38.760;2023-03-04T03:19:02;12.95;;;5.28;;
77078;SDS011;66004;55.096;38.760;2023-03-04T03:21:27;8.77;;;4.20;;
77078;SDS011;66004;55.096;38.760;2023-03-04T03:23:53;10.10;;;4.25;;
77078;SDS011;66004;55.096;38.760;2023-03-04T03:26:18;15.30;;;5.55;;
77078;SDS011;66004;55.096;38.760;2023-03-04T03:28:44;17.75;;;6.43;;
77078;SDS011;66004;55.096;38.760;2023-03-04T03:31:09;10.50;;;5.10;;
77078;SDS011;66004;55.096;38.760;2023-03-04T03:33:35;9.05;;;4.45;;
77078;SDS011;66004;55.096;38.760;2023-03-04T03:36:01;7.47;;;4.10;;
77078;SDS011;66004;55.096;38.760;2023-03-04T03:38:27;9.48;;;4.35;;
77078;SDS011;66004;55.096;38.760;2023-03-04T03:40:52;11.93;;;4.53;;
77078;SDS011;66004;55.096;38.760;2023-03-04T03:43:18;8.70;;;4.90;;
77078;SDS011;66004;55.096;38.760;2023-03-04T03:45:44;12.18;;;5.03;;
77078;SDS011;66004;55.096;38.760;2023-03-04T03:48:09;10.13;;;4.50;;
77078;SDS011;66004;55.096;38.760;2023-03-04T03:50:35;10.70;;;4.13;;
77078;SDS011;66004;55.096;38.760;2023-03-04T03:53:00;9.00;;;3.85;;
77078;SDS011;66004;55.096;38.760;2023-03-04T03:55:26;12.60;;;4.75;;
77078;SDS011;66004;55.096;38.760;2023-03-04T03:57:52;7.85;;;4.30;;
77078;SDS011;66004;55.096;38.760;2023-03-04T04:00:17;14.50;;;6.00;;
77078;SDS011;66004;55.096;38.760;2023-03-04T04:02:43;14.82;;;5.63;;
77078;SDS011;66004;55.096;38.760;2023-03-04T04:05:09;12.32;;;5.18;;
77078;SDS011;66004;55.096;38.760;2023-03-04T04:07:36;14.95;;;5.85;;
77078;SDS011;66004;55.096;38.760;2023-03-04T04:10:02;10.65;;;4.68;;
77078;SDS011;66004;55.096;38.760;2023-03-04T04:12:29;11.45;;;4.93;;
77078;SDS011;66004;55.096;38.760;2023-03-04T04:14:54;10.43;;;4.82;;
77078;SDS011;66004;55.096;38.760;2023-03-04T04:17:20;14.70;;;6.22;;
77078;SDS011;66004;55.096;38.760;2023-03-04T04:19:45;19.50;;;7.05;;
77078;SDS011;66004;55.096;38.760;2023-03-04T04:22:15;12.90;;;5.82;;
77078;SDS011;66004;55.096;38.760;2023-03-04T04:24:42;12.45;;;5.60;;
77078;SDS011;66004;55.096;38.760;2023-03-04T04:27:08;11.45;;;5.03;;
77078;SDS011;66004;55.096;38.760;2023-03-04T04:29:34;9.60;;;4.45;;
77078;SDS011;66004;55.096;38.760;2023-03-04T04:32:00;12.20;;;5.00;;
77078;SDS011;66004;55.096;38.760;2023-03-04T04:34:25;11.65;;;4.72;;
77078;SDS011;66004;55.096;38.760;2023-03-04T04:36:51;7.10;;;3.83;;
77078;SDS011;66004;55.096;38.760;2023-03-04T04:39:17;7.20;;;4.45;;
77078;SDS011;66004;55.096;38.760;2023-03-04T04:41:42;12.90;;;4.72;;
77078;SDS011;66004;55.096;38.760;2023-03-04T04:44:09;8.43;;;3.97;;
77078;SDS011;66004;55.096;38.760;2023-03-04T04:46:36;7.88;;;3.70;;
77078;SDS011;66004;55.096;38.760;2023-03-04T04:49:02;6.88;;;3.83;;
77078;SDS011;66004;55.096;38.760;2023-03-04T04:51:28;8.13;;;4.20;;
77078;SDS011;66004;55.096;38.760;2023-03-04T04:53:54;8.32;;;4.32;;
77078;SDS011;66004;55.096;38.760;2023-03-04T04:56:20;10.52;;;4.45;;
77078;SDS011;66004;55.096;38.760;2023-03-04T04:58:50;11.80;;;4.22;;
77078;SDS011;66004;55.096;38.760;2023-03-04T05:01:16;11.30;;;4.15;;
77078;SDS011;66004;55.096;38.760;2023-03-04T05:03:42;10.48;;;4.22;;
77078;SDS011;66004;55.096;38.760;2023-03-04T05:06:08;8.05;;;3.78;;
77078;SDS011;66004;55.096;38.760;2023-03-04T05:08:34;9.57;;;4.30;;
77078;SDS011;66004;55.096;38.760;2023-03-04T05:11:00;12.30;;;4.25;;
77078;SDS011;66004;55.096;38.760;2023-03-04T05:13:27;9.52;;;4.05;;
77078;SDS011;66004;55.096;38.760;2023-03-04T05:15:53;8.82;;;3.75;;
77078;SDS011;66004;55.096;38.760;2023-03-04T05:18:20;9.25;;;4.45;;
77078;SDS011;66004;55.096;38.760;2023-03-04T05:20:53;9.13;;;3.78;;
77078;SDS011;66004;55.096;38.760;2023-03-04T05:23:24;11.93;;;4.72;;
77078;SDS011;66004;55.096;38.760;2023-03-04T05:25:51;10.75;;;4.57;;
77078;SDS011;66004;55.096;38.760;2023-03-04T05:28:16;10.38;;;3.92;;
77078;SDS011;66004;55.096;38.760;2023-03-04T05:30:42;7.43;;;4.15;;
77078;SDS011;66004;55.096;38.760;2023-03-04T05:33:10;8.70;;;4.22;;
77078;SDS011;66004;55.096;38.760;2023-03-04T05:35:36;8.43;;;4.28;;
77078;SDS011;66004;55.096;38.760;2023-03-04T05:38:03;8.43;;;4.07;;
77078;SDS011;66004;55.096;38.760;2023-03-04T05:40:30;9.52;;;4.10;;
77078;SDS011;66004;55.096;38.760;2023-03-04T05:42:56;10.48;;;4.68;;
77078;SDS011;66004;55.096;38.760;2023-03-04T05:45:22;8.35;;;4.35;;
77078;SDS011;66004;55.096;38.760;2023-03-04T05:47:47;11.07;;;4.65;;
77078;SDS011;66004;55.096;38.760;2023-03-04T05:50:13;9.45;;;4.53;;
77078;SDS011;66004;55.096;38.760;2023-03-04T05:52:39;9.38;;;4.45;;
77078;SDS011;66004;55.096;38.760;2023-03-04T05:55:04;9.73;;;4.47;;
77078;SDS011;66004;55.096;38.760;2023-03-04T05:57:30;8.57;;;4.30;;
77078;SDS011;66004;55.096;38.760;2023-03-04T05:59:56;8.27;;;4.28;;
77078;SDS011;66004;55.096;38.760;2023-03-04T06:02:21;11.30;;;4.82;;
77078;SDS011;66004;55.096;38.760;2023-03-04T06:04:47;11.02;;;4.75;;
77078;SDS011;66004;55.096;38.760;2023-03-04T06:07:12;14.25;;;5.53;;
77078;SDS011;66004;55.096;38.760;2023-03-04T06:09:38;8.77;;;4.78;;
77078;SDS011;66004;55.096;38.760;2023-03-04T06:12:03;9.32;;;4.78;;
77078;SDS011;66004;55.096;38.760;2023-03-04T06:14:29;12.93;;;4.60;;
77078;SDS011;66004;55.096;38.760;2023-03-04T06:16:55;8.70;;;4.32;;
77078;SDS011;66004;55.096;38.760;2023-03-04T06:19:20;8.32;;;3.92;;
77078;SDS011;66004;55.096;38.760;2023-03-04T06:21:46;7.40;;;4.05;;
77078;SDS011;66004;55.096;38.760;2023-03-04T06:24:12;8.48;;;3.60;;
77078;SDS011;66004;55.096;38.760;2023-03-04T06:26:37;6.85;;;4.00;;
77078;SDS011;66004;55.096;38.760;2023-03-04T06:29:03;8.68;;;4.32;;
77078;SDS011;66004;55.096;38.760;2023-03-04T06:33:55;6.88;;;3.50;;
77078;SDS011;66004;55.096;38.760;2023-03-04T06:36:20;6.50;;;3.47;;
77078;SDS011;66004;55.096;38.760;2023-03-04T06:38:46;7.38;;;3.42;;
77078;SDS011;66004;55.096;38.760;2023-03-04T06:41:11;9.60;;;3.92;;
77078;SDS011;66004;55.096;38.760;2023-03-04T06:43:37;9.43;;;4.65;;
77078;SDS011;66004;55.096;38.760;2023-03-04T06:48:30;9.98;;;4.28;;
77078;SDS011;66004;55.096;38.760;2023-03-04T06:50:55;8.05;;;3.83;;
77078;SDS011;66004;55.096;38.760;2023-03-04T06:53:21;9.40;;;4.07;;
77078;SDS011;66004;55.096;38.760;2023-03-04T06:55:46;9.23;;;4.05;;
77078;SDS011;66004;55.096;38.760;2023-03-04T06:58:12;9.10;;;4.18;;
77078;SDS011;66004;55.096;38.760;2023-03-04T07:00:38;5.72;;;3.15;;
77078;SDS011;66004;55.096;38.760;2023-03-04T07:03:10;9.57;;;3.70;;
77078;SDS011;66004;55.096;38.760;2023-03-04T07:05:38;11.32;;;4.53;;
77078;SDS011;66004;55.096;38.760;2023-03-04T07:08:04;8.73;;;4.00;;
77078;SDS011;66004;55.096;38.760;2023-03-04T07:10:31;6.53;;;3.45;;
77078;SDS011;66004;55.096;38.760;2023-03-04T07:12:56;9.52;;;4.85;;
77078;SDS011;66004;55.096;38.760;2023-03-04T07:15:22;9.45;;;4.47;;
77078;SDS011;66004;55.096;38.760;2023-03-04T07:17:47;9.07;;;4.40;;
77078;SDS011;66004;55.096;38.760;2023-03-04T07:20:13;6.25;;;3.90;;
77078;SDS011;66004;55.096;38.760;2023-03-04T07:22:38;8.43;;;3.63;;
77078;SDS011;66004;55.096;38.760;2023-03-04T07:25:04;10.75;;;4.93;;
77078;SDS011;66004;55.096;38.760;2023-03-04T07:27:30;7.38;;;3.38;;
77078;SDS011;66004;55.096;38.760;2023-03-04T07:29:56;8.02;;;3.30;;
77078;SDS011;66004;55.096;38.760;2023-03-04T07:32:21;6.82;;;3.70;;
77078;SDS011;66004;55.096;38.760;2023-03-04T07:34:47;13.98;;;4.00;;
77078;SDS011;66004;55.096;38.760;2023-03-04T07:37:12;6.78;;;3.17;;
77078;SDS011;66004;55.096;38.760;2023-03-04T07:39:38;5.93;;;3.28;;
77078;SDS011;66004;55.096;38.760;2023-03-04T07:42:03;6.20;;;3.00;;
77078;SDS011;66004;55.096;38.760;2023-03-04T07:44:29;5.03;;;2.97;;
77078;SDS011;66004;55.096;38.760;2023-03-04T07:46:54;7.00;;;3.47;;
77078;SDS011;66004;55.096;38.760;2023-03-04T07:49:20;4.78;;;2.80;;
77078;SDS011;66004;55.096;38.760;2023-03-04T07:51:46;5.32;;;3.22;;
77078;SDS011;66004;55.096;38.760;2023-03-04T07:54:12;5.03;;;2.70;;
77078;SDS011;66004;55.096;38.760;2023-03-04T07:56:38;7.63;;;3.00;;
77078;SDS011;66004;55.096;38.760;2023-03-04T07:59:03;6.80;;;3.00;;
77078;SDS011;66004;55.096;38.760;2023-03-04T08:01:38;7.97;;;3.50;;
77078;SDS011;66004;55.096;38.760;2023-03-04T08:04:04;4.93;;;2.75;;
77078;SDS011;66004;55.096;38.760;2023-03-04T08:06:30;4.25;;;2.17;;
77078;SDS011;66004;55.096;38.760;2023-03-04T08:08:57;6.18;;;2.58;;
77078;SDS011;66004;55.096;38.760;2023-03-04T08:11:24;9.82;;;3.20;;
77078;SDS011;66004;55.096;38.760;2023-03-04T08:13:50;5.57;;;2.75;;
77078;SDS011;66004;55.096;38.760;2023-03-04T08:16:18;7.05;;;3.30;;
77078;SDS011;66004;55.096;38.760;2023-03-04T08:18:46;7.53;;;3.08;;
77078;SDS011;66004;55.096;38.760;2023-03-04T08:21:14;7.57;;;3.55;;
77078;SDS011;66004;55.096;38.760;2023-03-04T08:23:42;6.22;;;2.22;;
77078;SDS011;66004;55.096;38.760;2023-03-04T08:26:09;6.20;;;2.90;;
77078;SDS011;66004;55.096;38.760;2023-03-04T08:28:37;6.72;;;2.88;;
77078;SDS011;66004;55.096;38.760;2023-03-04T08:31:02;4.78;;;2.92;;
77078;SDS011;66004;55.096;38.760;2023-03-04T08:33:28;7.35;;;3.00;;
77078;SDS011;66004;55.096;38.760;2023-03-04T08:35:54;6.57;;;3.30;;
77078;SDS011;66004;55.096;38.760;2023-03-04T08:38:19;9.45;;;4.07;;
77078;SDS011;66004;55.096;38.760;2023-03-04T08:40:50;6.93;;;3.60;;
77078;SDS011;66004;55.096;38.760;2023-03-04T08:43:16;6.50;;;3.40;;
77078;SDS011;66004;55.096;38.760;2023-03-04T08:45:42;9.77;;;3.97;;
77078;SDS011;66004;55.096;38.760;2023-03-04T08:48:07;9.63;;;4.80;;
77078;SDS011;66004;55.096;38.760;2023-03-04T11:10:20;6.18;;;2.28;;
77078;SDS011;66004;55.096;38.760;2023-03-04T11:13:05;2.88;;;2.13;;
77078;SDS011;66004;55.096;38.760;2023-03-04T11:16:21;3.47;;;1.63;;
77078;SDS011;66004;55.096;38.760;2023-03-04T11:18:51;5.82;;;1.70;;
77078;SDS011;66004;55.096;38.760;2023-03-04T11:21:20;4.50;;;1.60;;
77078;SDS011;66004;55.096;38.760;2023-03-04T11:23:58;4.93;;;1.75;;
77078;SDS011;66004;55.096;38.760;2023-03-04T11:32:04;3.30;;;1.65;;
77078;SDS011;66004;55.096;38.760;2023-03-04T11:34:33;6.32;;;1.90;;
77078;SDS011;66004;55.096;38.760;2023-03-04T11:37:14;3.10;;;1.80;;
77078;SDS011;66004;55.096;38.760;2023-03-04T11:40:07;3.30;;;2.00;;
77078;SDS011;66004;55.096;38.760;2023-03-04T11:45:31;4.22;;;1.85;;
77078;SDS011;66004;55.096;38.760;2023-03-04T11:48:18;6.05;;;2.13;;
77078;SDS011;66004;55.096;38.760;2023-03-04T11:50:48;7.80;;;2.60;;
77078;SDS011;66004;55.096;38.760;2023-03-04T12:10:24;6.03;;;2.70;;
77078;SDS011;66004;55.096;38.760;2023-03-04T12:13:17;4.93;;;2.53;;
77078;SDS011;66004;55.096;38.760;2023-03-04T12:24:18;8.38;;;3.00;;
77078;SDS011;66004;55.096;38.760;2023-03-04T12:27:13;7.65;;;3.38;;
77078;SDS011;66004;55.096;38.760;2023-03-04T12:35:23;5.53;;;3.60;;
77078;SDS011;66004;55.096;38.760;2023-03-04T12:40:29;4.80;;;3.00;;
77078;SDS011;66004;55.096;38.760;2023-03-04T12:56:04;4.75;;;2.63;;
77078;SDS011;66004;55.096;38.760;2023-03-04T12:58:31;4.40;;;2.85;;
77078;SDS011;66004;55.096;38.760;2023-03-04T13:01:08;6.32;;;3.53;;
77078;SDS011;66004;55.096;38.760;2023-03-04T13:03:54;5.68;;;2.85;;
77078;SDS011;66004;55.096;38.760;2023-03-04T13:16:48;6.40;;;3.35;;
77078;SDS011;66004;55.096;38.760;2023-03-04T13:24:53;6.10;;;3.30;;
77078;SDS011;66004;55.096;38.760;2023-03-04T13:41:06;5.70;;;3.17;;
77078;SDS011;66004;55.096;38.760;2023-03-04T13:51:30;5.95;;;3.42;;
77078;SDS011;66004;55.096;38.760;2023-03-04T13:54:28;6.75;;;3.25;;
77078;SDS011;66004;55.096;38.760;2023-03-04T13:59:29;7.45;;;4.15;;
77078;SDS011;66004;55.096;38.760;2023-03-04T14:02:12;7.50;;;3.50;;
77078;SDS011;66004;55.096;38.760;2023-03-04T14:04:44;6.40;;;3.05;;
77078;SDS011;66004;55.096;38.760;2023-03-04T14:07:23;6.60;;;4.28;;
77078;SDS011;66004;55.096;38.760;2023-03-04T14:12:35;9.35;;;4.43;;
77078;SDS011;66004;55.096;38.760;2023-03-04T14:15:05;6.57;;;3.95;;
77078;SDS011;66004;55.096;38.760;2023-03-04T14:17:43;7.20;;;3.78;;
77078;SDS011;66004;55.096;38.760;2023-03-04T14:23:01;6.03;;;3.17;;
77078;SDS011;66004;55.096;38.760;2023-03-04T14:25:46;7.35;;;3.25;;
77078;SDS011;66004;55.096;38.760;2023-03-04T14:28:12;5.38;;;3.55;;
77078;SDS011;66004;55.096;38.760;2023-03-04T14:30:50;6.15;;;3.80;;
77078;SDS011;66004;55.096;38.760;2023-03-04T14:33:18;5.40;;;3.40;;
77078;SDS011;66004;55.096;38.760;2023-03-04T14:35:47;5.50;;;2.83;;
77078;SDS011;66004;55.096;38.760;2023-03-04T14:38:22;6.53;;;3.30;;
77078;SDS011;66004;55.096;38.760;2023-03-04T14:41:54;7.38;;;3.55;;
77078;SDS011;66004;55.096;38.760;2023-03-04T14:46:48;4.97;;;3.30;;
77078;SDS011;66004;55.096;38.760;2023-03-04T14:49:30;4.60;;;3.30;;
77078;SDS011;66004;55.096;38.760;2023-03-04T15:03:29;7.63;;;4.63;;
77078;SDS011;66004;55.096;38.760;2023-03-04T15:06:05;6.78;;;3.53;;
77078;SDS011;66004;55.096;38.760;2023-03-04T15:08:39;5.97;;;3.47;;
77078;SDS011;66004;55.096;38.760;2023-03-04T15:11:05;5.25;;;2.85;;
77078;SDS011;66004;55.096;38.760;2023-03-04T15:13:38;4.43;;;3.08;;
77078;SDS011;66004;55.096;38.760;2023-03-04T15:16:06;6.80;;;3.65;;
77078;SDS011;66004;55.096;38.760;2023-03-04T15:23:28;5.18;;;2.78;;
77078;SDS011;66004;55.096;38.760;2023-03-04T15:25:57;7.10;;;3.63;;
77078;SDS011;66004;55.096;38.760;2023-03-04T15:28:29;5.65;;;3.38;;
77078;SDS011;66004;55.096;38.760;2023-03-04T15:30:58;5.70;;;3.35;;
77078;SDS011;66004;55.096;38.760;2023-03-04T15:33:23;7.55;;;4.35;;
77078;SDS011;66004;55.096;38.760;2023-03-04T15:35:51;7.35;;;3.33;;
77078;SDS011;66004;55.096;38.760;2023-03-04T15:38:20;6.47;;;3.85;;
77078;SDS011;66004;55.096;38.760;2023-03-04T15:43:16;6.40;;;3.75;;
77078;SDS011;66004;55.096;38.760;2023-03-04T15:45:44;6.00;;;4.05;;
77078;SDS011;66004;55.096;38.760;2023-03-04T15:48:11;7.07;;;3.60;;
77078;SDS011;66004;55.096;38.760;2023-03-04T15:50:40;7.43;;;3.90;;
77078;SDS011;66004;55.096;38.760;2023-03-04T15:53:13;9.63;;;4.32;;
77078;SDS011;66004;55.096;38.760;2023-03-04T15:55:46;6.20;;;3.90;;
77078;SDS011;66004;55.096;38.760;2023-03-04T15:58:11;7.90;;;3.90;;
77078;SDS011;66004;55.096;38.760;2023-03-04T16:03:03;8.15;;;4.40;;
77078;SDS011;66004;55.096;38.760;2023-03-04T16:05:29;6.93;;;4.65;;
77078;SDS011;66004;55.096;38.760;2023-03-04T16:07:59;6.80;;;3.67;;
77078;SDS011;66004;55.096;38.760;2023-03-04T16:10:26;6.57;;;4.32;;
77078;SDS011;66004;55.096;38.760;2023-03-04T16:12:56;10.32;;;4.20;;
77078;SDS011;66004;55.096;38.760;2023-03-04T16:15:24;6.68;;;4.03;;
77078;SDS011;66004;55.096;38.760;2023-03-04T16:17:52;9.48;;;5.22;;
77078;SDS011;66004;55.096;38.760;2023-03-04T16:20:19;7.40;;;4.30;;
77078;SDS011;66004;55.096;38.760;2023-03-04T16:22:47;7.30;;;4.32;;
77078;SDS011;66004;55.096;38.760;2023-03-04T16:25:16;10.95;;;5.22;;
77078;SDS011;66004;55.096;38.760;2023-03-04T16:27:42;8.90;;;4.82;;
77078;SDS011;66004;55.096;38.760;2023-03-04T16:30:13;11.15;;;5.28;;
77078;SDS011;66004;55.096;38.760;2023-03-04T16:32:41;8.00;;;4.85;;
77078;SDS011;66004;55.096;38.760;2023-03-04T16:35:07;8.27;;;4.60;;
77078;SDS011;66004;55.096;38.760;2023-03-04T16:39:59;7.00;;;3.92;;
77078;SDS011;66004;55.096;38.760;2023-03-04T16:42:24;7.10;;;3.80;;
77078;SDS011;66004;55.096;38.760;2023-03-04T16:44:51;16.67;;;8.60;;
77078;SDS011;66004;55.096;38.760;2023-03-04T16:47:18;6.32;;;3.58;;
77078;SDS011;66004;55.096;38.760;2023-03-04T16:49:43;6.57;;;3.55;;
77078;SDS011;66004;55.096;38.760;2023-03-04T16:52:30;6.78;;;4.05;;
77078;SDS011;66004;55.096;38.760;2023-03-04T16:54:57;9.10;;;4.00;;
77078;SDS011;66004;55.096;38.760;2023-03-04T16:57:24;6.68;;;3.58;;
77078;SDS011;66004;55.096;38.760;2023-03-04T16:59:54;6.38;;;3.63;;
77078;SDS011;66004;55.096;38.760;2023-03-04T17:02:20;6.63;;;4.28;;
77078;SDS011;66004;55.096;38.760;2023-03-04T17:04:49;4.68;;;3.40;;
77078;SDS011;66004;55.096;38.760;2023-03-04T17:07:24;4.78;;;3.20;;
77078;SDS011;66004;55.096;38.760;2023-03-04T17:09:52;5.72;;;3.00;;
77078;SDS011;66004;55.096;38.760;2023-03-04T17:12:18;5.55;;;3.22;;
77078;SDS011;66004;55.096;38.760;2023-03-04T17:14:43;6.15;;;3.47;;
77078;SDS011;66004;55.096;38.760;2023-03-04T17:17:11;4.55;;;3.17;;
77078;SDS011;66004;55.096;38.760;2023-03-04T17:19:37;6.13;;;3.40;;
77078;SDS011;66004;55.096;38.760;2023-03-04T17:22:03;7.32;;;3.30;;
77078;SDS011;66004;55.096;38.760;2023-03-04T17:24:28;5.18;;;3.20;;
77078;SDS011;66004;55.096;38.760;2023-03-04T17:26:54;6.88;;;3.70;;
77078;SDS011;66004;55.096;38.760;2023-03-04T17:29:20;6.20;;;4.05;;
77078;SDS011;66004;55.096;38.760;2023-03-04T17:31:46;6.35;;;3.78;;
77078;SDS011;66004;55.096;38.760;2023-03-04T17:34:11;5.95;;;3.50;;
77078;SDS011;66004;55.096;38.760;2023-03-04T17:39:03;5.55;;;3.47;;
77078;SDS011;66004;55.096;38.760;2023-03-04T17:41:29;5.13;;;3.25;;
77078;SDS011;66004;55.096;38.760;2023-03-04T17:43:55;9.40;;;5.25;;
77078;SDS011;66004;55.096;38.760;2023-03-04T17:46:24;7.63;;;4.38;;
77078;SDS011;66004;55.096;38.760;2023-03-04T17:48:52;5.85;;;3.80;;
77078;SDS011;66004;55.096;38.760;2023-03-04T17:51:20;8.38;;;3.75;;
77078;SDS011;66004;55.096;38.760;2023-03-04T17:53:52;6.57;;;3.80;;
77078;SDS011;66004;55.096;38.760;2023-03-04T17:56:18;6.47;;;3.83;;
77078;SDS011;66004;55.096;38.760;2023-03-04T17:58:43;7.50;;;4.50;;
77078;SDS011;66004;55.096;38.760;2023-03-04T18:01:18;8.48;;;3.95;;
77078;SDS011;66004;55.096;38.760;2023-03-04T18:03:44;8.85;;;3.90;;
77078;SDS011;66004;55.096;38.760;2023-03-04T18:06:10;5.78;;;3.03;;
77078;SDS011;66004;55.096;38.760;2023-03-04T18:08:36;5.90;;;2.92;;
77078;SDS011;66004;55.096;38.760;2023-03-04T18:11:01;5.88;;;3.47;;
77078;SDS011;66004;55.096;38.760;2023-03-04T18:13:27;6.45;;;3.83;;
77078;SDS011;66004;55.096;38.760;2023-03-04T18:15:53;6.90;;;3.70;;
77078;SDS011;66004;55.096;38.760;2023-03-04T18:20:44;6.78;;;3.65;;
77078;SDS011;66004;55.096;38.760;2023-03-04T18:23:10;7.88;;;4.10;;
77078;SDS011;66004;55.096;38.760;2023-03-04T18:25:36;8.05;;;4.38;;
77078;SDS011;66004;55.096;38.760;2023-03-04T18:28:01;7.22;;;4.05;;
77078;SDS011;66004;55.096;38.760;2023-03-04T18:30:27;7.18;;;4.40;;
77078;SDS011;66004;55.096;38.760;2023-03-04T18:32:53;7.60;;;4.22;;
77078;SDS011;66004;55.096;38.760;2023-03-04T18:35:20;6.35;;;3.65;;
77078;SDS011;66004;55.096;38.760;2023-03-04T18:37:46;7.07;;;3.95;;
77078;SDS011;66004;55.096;38.760;2023-03-04T18:40:15;7.47;;;3.63;;
77078;SDS011;66004;55.096;38.760;2023-03-04T18:42:41;7.15;;;3.55;;
77078;SDS011;66004;55.096;38.760;2023-03-04T18:45:12;7.18;;;3.92;;
77078;SDS011;66004;55.096;38.760;2023-03-04T18:47:39;6.57;;;4.03;;
77078;SDS011;66004;55.096;38.760;2023-03-04T18:50:08;7.13;;;3.20;;
77078;SDS011;66004;55.096;38.760;2023-03-04T18:55:00;7.55;;;3.72;;
77078;SDS011;66004;55.096;38.760;2023-03-04T18:57:25;6.72;;;3.45;;
77078;SDS011;66004;55.096;38.760;2023-03-04T18:59:51;6.53;;;3.83;;
77078;SDS011;66004;55.096;38.760;2023-03-04T19:05:21;7.80;;;3.50;;
77078;SDS011;66004;55.096;38.760;2023-03-04T19:07:49;5.85;;;3.72;;
77078;SDS011;66004;55.096;38.760;2023-03-04T19:10:15;7.68;;;4.32;;
77078;SDS011;66004;55.096;38.760;2023-03-04T19:12:41;8.30;;;4.05;;
77078;SDS011;66004;55.096;38.760;2023-03-04T19:15:07;5.93;;;3.60;;
77078;SDS011;66004;55.096;38.760;2023-03-04T19:17:34;7.07;;;4.00;;
77078;SDS011;66004;55.096;38.760;2023-03-04T19:20:01;7.05;;;3.58;;
77078;SDS011;66004;55.096;38.760;2023-03-04T19:22:28;7.35;;;4.20;;
77078;SDS011;66004;55.096;38.760;2023-03-04T19:24:53;8.02;;;3.70;;
77078;SDS011;66004;55.096;38.760;2023-03-04T19:27:19;8.85;;;3.92;;
77078;SDS011;66004;55.096;38.760;2023-03-04T19:29:46;7.47;;;3.85;;
77078;SDS011;66004;55.096;38.760;2023-03-04T19:32:12;8.48;;;4.28;;
77078;SDS011;66004;55.096;38.760;2023-03-04T19:34:38;7.82;;;3.83;;
77078;SDS011;66004;55.096;38.760;2023-03-04T19:37:03;11.45;;;4.72;;
77078;SDS011;66004;55.096;38.760;2023-03-04T19:39:29;9.40;;;4.68;;
77078;SDS011;66004;55.096;38.760;2023-03-04T19:41:56;10.25;;;4.97;;
77078;SDS011;66004;55.096;38.760;2023-03-04T19:44:21;5.80;;;3.17;;
77078;SDS011;66004;55.096;38.760;2023-03-04T19:46:48;8.77;;;4.32;;
77078;SDS011;66004;55.096;38.760;2023-03-04T19:49:13;9.30;;;4.55;;
77078;SDS011;66004;55.096;38.760;2023-03-04T19:51:39;8.00;;;4.45;;
77078;SDS011;66004;55.096;38.760;2023-03-04T19:54:05;9.52;;;4.50;;
77078;SDS011;66004;55.096;38.760;2023-03-04T19:56:31;8.18;;;4.05;;
77078;SDS011;66004;55.096;38.760;2023-03-04T19:59:07;10.10;;;4.70;;
77078;SDS011;66004;55.096;38.760;2023-03-04T20:01:41;7.53;;;4.03;;
77078;SDS011;66004;55.096;38.760;2023-03-04T20:04:17;10.90;;;4.43;;
77078;SDS011;66004;55.096;38.760;2023-03-04T20:06:47;10.45;;;4.47;;
77078;SDS011;66004;55.096;38.760;2023-03-04T20:09:14;10.65;;;4.40;;
77078;SDS011;66004;55.096;38.760;2023-03-04T20:11:41;7.53;;;4.30;;
77078;SDS011;66004;55.096;38.760;2023-03-04T20:14:07;7.53;;;4.15;;
77078;SDS011;66004;55.096;38.760;2023-03-04T20:16:33;10.02;;;3.92;;
77078;SDS011;66004;55.096;38.760;2023-03-04T20:18:59;9.07;;;4.28;;
77078;SDS011;66004;55.096;38.760;2023-03-04T20:21:25;9.70;;;4.20;;
77078;SDS011;66004;55.096;38.760;2023-03-04T20:23:52;8.50;;;4.13;;
77078;SDS011;66004;55.096;38.760;2023-03-04T20:26:18;10.13;;;4.32;;
77078;SDS011;66004;55.096;38.760;2023-03-04T20:28:44;8.50;;;4.30;;
77078;SDS011;66004;55.096;38.760;2023-03-04T20:31:21;8.95;;;3.97;;
77078;SDS011;66004;55.096;38.760;2023-03-04T20:33:49;9.68;;;4.00;;
77078;SDS011;66004;55.096;38.760;2023-03-04T20:36:19;10.73;;;4.95;;
77078;SDS011;66004;55.096;38.760;2023-03-04T20:38:47;10.13;;;3.83;;
77078;SDS011;66004;55.096;38.760;2023-03-04T20:41:13;9.90;;;4.00;;
77078;SDS011;66004;55.096;38.760;2023-03-04T20:43:39;10.57;;;4.50;;
77078;SDS011;66004;55.096;38.760;2023-03-04T20:49:02;10.52;;;4.38;;
77078;SDS011;66004;55.096;38.760;2023-03-04T20:53:01;9.25;;;3.55;;
77078;SDS011;66004;55.096;38.760;2023-03-04T20:55:26;9.43;;;4.78;;
77078;SDS011;66004;55.096;38.760;2023-03-04T20:57:52;10.05;;;4.97;;
77078;SDS011;66004;55.096;38.760;2023-03-04T21:00:18;11.15;;;5.45;;
77078;SDS011;66004;55.096;38.760;2023-03-04T21:02:44;9.77;;;4.85;;
77078;SDS011;66004;55.096;38.760;2023-03-04T21:05:14;14.82;;;5.15;;
77078;SDS011;66004;55.096;38.760;2023-03-04T21:07:40;10.65;;;4.47;;
77078;SDS011;66004;55.096;38.760;2023-03-04T21:10:05;9.00;;;5.05;;
77078;SDS011;66004;55.096;38.760;2023-03-04T21:12:31;9.95;;;4.53;;
77078;SDS011;66004;55.096;38.760;2023-03-04T21:14:57;8.80;;;4.28;;
77078;SDS011;66004;55.096;38.760;2023-03-04T21:17:22;10.32;;;4.88;;
77078;SDS011;66004;55.096;38.760;2023-03-04T21:19:48;10.55;;;4.55;;
77078;SDS011;66004;55.096;38.760;2023-03-04T21:22:15;11.02;;;4.40;;
77078;SDS011;66004;55.096;38.760;2023-03-04T21:24:42;9.90;;;4.70;;
77078;SDS011;66004;55.096;38.760;2023-03-04T21:27:09;9.85;;;4.63;;
77078;SDS011;66004;55.096;38.760;2023-03-04T21:29:35;11.82;;;4.53;;
77078;SDS011;66004;55.096;38.760;2023-03-04T21:32:05;10.50;;;3.95;;
77078;SDS011;66004;55.096;38.760;2023-03-04T21:34:39;7.68;;;4.13;;
77078;SDS011;66004;55.096;38.760;2023-03-04T21:37:07;9.10;;;4.22;;
77078;SDS011;66004;55.096;38.760;2023-03-04T21:39:33;8.52;;;4.10;;
77078;SDS011;66004;55.096;38.760;2023-03-04T21:42:00;9.45;;;4.32;;
77078;SDS011;66004;55.096;38.760;2023-03-04T21:44:26;9.75;;;4.20;;
77078;SDS011;66004;55.096;38.760;2023-03-04T21:46:57;10.15;;;5.35;;
77078;SDS011;66004;55.096;38.760;2023-03-04T21:49:26;11.13;;;4.43;;
77078;SDS011;66004;55.096;38.760;2023-03-04T21:51:52;9.00;;;4.50;;
77078;SDS011;66004;55.096;38.760;2023-03-04T21:54:18;7.72;;;4.03;;
77078;SDS011;66004;55.096;38.760;2023-03-04T21:56:43;9.20;;;3.40;;
77078;SDS011;66004;55.096;38.760;2023-03-04T21:59:16;7.65;;;3.83;;
77078;SDS011;66004;55.096;38.760;2023-03-04T22:01:42;9.73;;;4.40;;
77078;SDS011;66004;55.096;38.760;2023-03-04T22:06:34;9.15;;;3.45;;
77078;SDS011;66004;55.096;38.760;2023-03-04T22:09:03;7.85;;;3.67;;
77078;SDS011;66004;55.096;38.760;2023-03-04T22:11:29;5.93;;;3.22;;
77078;SDS011;66004;55.096;38.760;2023-03-04T22:16:21;7.32;;;3.38;;
77078;SDS011;66004;55.096;38.760;2023-03-04T22:18:47;5.65;;;2.92;;
77078;SDS011;66004;55.096;38.760;2023-03-04T22:21:13;6.45;;;3.33;;
77078;SDS011;66004;55.096;38.760;2023-03-04T22:23:40;7.88;;;3.38;;
77078;SDS011;66004;55.096;38.760;2023-03-04T22:26:11;7.20;;;3.00;;
77078;SDS011;66004;55.096;38.760;2023-03-04T22:28:36;6.47;;;3.00;;
77078;SDS011;66004;55.096;38.760;2023-03-04T22:31:16;7.40;;;2.30;;
77078;SDS011;66004;55.096;38.760;2023-03-04T22:33:44;5.72;;;2.60;;
77078;SDS011;66004;55.096;38.760;2023-03-04T22:36:13;9.52;;;2.72;;
77078;SDS011;66004;55.096;38.760;2023-03-04T22:38:41;6.10;;;2.70;;
77078;SDS011;66004;55.096;38.760;2023-03-04T22:41:15;7.88;;;2.60;;
77078;SDS011;66004;55.096;38.760;2023-03-04T22:43:44;6.57;;;2.75;;
77078;SDS011;66004;55.096;38.760;2023-03-04T22:46:17;6.60;;;2.90;;